Time;durP1;ratioP1;P1;durP2;ratioP2;P2;SDS_P1;SDS_P2;PMS_P1;PMS_P2;Temp;Humidity;BMP_temperature;BMP_pressure;BME280_temperature;BME280_humidity;BME280_pressure;Samples;Min_cycle;Max_cycle;Signal;HPM_P1;HPM_P2
2022/05/20 00:02:07;;;;;;;10.88;5.80;;;13.10;99.90;;;;;;5056121;28;20036;-59
2022/05/20 00:04:33;;;;;;;12.27;5.70;;;13.30;99.90;;;;;;5056282;28;20064;-59
2022/05/20 00:06:58;;;;;;;9.85;5.65;;;13.00;99.90;;;;;;5057528;28;20045;-58
2022/05/20 00:09:24;;;;;;;14.57;6.53;;;13.90;99.90;;;;;;5055749;28;20045;-59
2022/05/20 00:11:50;;;;;;;11.73;6.22;;;14.10;99.90;;;;;;5056374;28;20032;-58
2022/05/20 00:14:15;;;;;;;12.40;7.70;;;14.90;99.90;;;;;;5056049;28;20044;-59
2022/05/20 00:16:41;;;;;;;13.25;7.70;;;12.90;99.90;;;;;;5054578;28;20056;-59
2022/05/20 00:19:08;;;;;;;13.80;7.05;;;13.20;99.90;;;;;;5055607;28;20485;-59
2022/05/20 00:21:35;;;;;;;14.77;7.20;;;15.10;99.90;;;;;;5055604;28;20028;-59
2022/05/20 00:24:02;;;;;;;16.80;7.40;;;13.20;99.90;;;;;;5055175;28;20702;-59
2022/05/20 00:26:28;;;;;;;12.07;6.85;;;14.80;99.90;;;;;;5054244;28;20040;-58
2022/05/20 00:28:55;;;;;;;11.57;6.60;;;13.00;99.90;;;;;;5055309;28;20060;-58
2022/05/20 00:31:23;;;;;;;13.10;6.88;;;15.10;99.90;;;;;;5051650;28;20052;-58
2022/05/20 00:33:49;;;;;;;12.48;6.70;;;14.90;99.90;;;;;;5055295;28;20122;-59
2022/05/20 00:36:15;;;;;;;15.02;8.18;;;12.80;99.90;;;;;;5055704;28;20854;-59
2022/05/20 00:38:43;;;;;;;13.20;8.30;;;12.90;99.90;;;;;;5054695;28;25016;-59
2022/05/20 00:41:10;;;;;;;13.20;7.75;;;13.50;99.90;;;;;;5054718;28;20311;-59
2022/05/20 00:43:55;;;;;;;18.33;8.13;;;13.10;99.90;;;;;;5053208;28;20123;-58
2022/05/20 00:46:23;;;;;;;16.85;8.18;;;12.50;99.90;;;;;;5054681;28;20045;-58
2022/05/20 00:49:03;;;;;;;15.40;8.77;;;12.40;99.90;;;;;;5054787;28;20056;-59
2022/05/20 00:51:58;;;;;;;13.52;8.40;;;12.40;99.90;;;;;;5055426;28;20579;-59
2022/05/20 00:54:26;;;;;;;16.40;9.25;;;12.20;99.90;;;;;;5051403;28;20049;-58
2022/05/20 00:57:24;;;;;;;11.35;8.70;;;12.10;99.90;;;;;;5034713;28;20199;-59
2022/05/20 00:59:59;;;;;;;12.73;9.02;;;12.10;99.90;;;;;;4992468;28;20074;-59
2022/05/20 01:02:27;;;;;;;14.45;8.48;;;12.00;99.90;;;;;;4992636;28;20810;-59
2022/05/20 01:04:59;;;;;;;14.90;9.10;;;12.00;99.90;;;;;;4992036;28;20062;-59
2022/05/20 01:07:28;;;;;;;17.83;10.45;;;12.70;99.90;;;;;;4993342;28;20049;-59
2022/05/20 01:09:54;;;;;;;15.75;9.75;;;11.90;99.90;;;;;;4995172;28;20252;-59
2022/05/20 01:12:24;;;;;;;14.93;10.25;;;11.90;99.90;;;;;;4993147;28;20610;-58
2022/05/20 01:14:51;;;;;;;19.00;11.15;;;13.30;99.90;;;;;;4993213;28;20038;-58
2022/05/20 01:17:17;;;;;;;16.10;10.60;;;11.60;99.90;;;;;;4992121;28;20046;-59
2022/05/20 01:19:56;;;;;;;18.60;11.63;;;13.80;99.90;;;;;;4993212;28;20497;-59
2022/05/20 01:22:40;;;;;;;19.75;12.38;;;11.70;99.90;;;;;;4993844;28;20041;-58
2022/05/20 01:25:09;;;;;;;16.48;11.85;;;11.60;99.90;;;;;;4992550;28;20058;-58
2022/05/20 01:27:36;;;;;;;17.80;11.93;;;11.50;99.90;;;;;;4992470;28;20042;-59
2022/05/20 01:30:04;;;;;;;17.70;12.95;;;11.70;99.90;;;;;;4991780;28;20151;-60
2022/05/20 01:32:30;;;;;;;18.17;12.38;;;11.60;99.90;;;;;;4990827;28;20556;-58
2022/05/20 01:34:57;;;;;;;19.90;14.00;;;11.90;99.90;;;;;;4990901;28;20046;-58
2022/05/20 01:37:23;;;;;;;21.60;14.05;;;11.70;99.90;;;;;;5035591;28;20067;-58
2022/05/20 01:39:51;;;;;;;18.65;14.05;;;11.60;99.90;;;;;;5054408;28;20491;-59
2022/05/20 01:42:27;;;;;;;20.65;15.10;;;12.50;99.90;;;;;;5052566;28;20028;-59
2022/05/20 01:44:59;;;;;;;23.42;14.73;;;11.70;99.90;;;;;;5053680;28;20127;-59
2022/05/20 01:47:39;;;;;;;19.88;14.52;;;12.50;99.90;;;;;;5054371;28;20454;-59
2022/05/20 01:50:12;;;;;;;21.02;14.38;;;12.00;99.90;;;;;;5053793;28;20540;-59
2022/05/20 01:52:48;;;;;;;20.25;14.25;;;11.50;99.90;;;;;;5054564;28;20055;-59
2022/05/20 01:55:42;;;;;;;17.00;14.57;;;11.60;99.90;;;;;;5054192;28;20040;-58
2022/05/20 01:58:25;;;;;;;18.67;14.95;;;11.70;99.90;;;;;;5052163;28;20139;-59
2022/05/20 02:00:55;;;;;;;;;;;11.50;99.90;;;;;;5054939;28;20079;-59
2022/05/20 02:03:27;;;;;;;21.42;14.18;;;11.60;99.90;;;;;;5053678;28;20015;-59
2022/05/20 02:06:10;;;;;;;17.65;14.05;;;11.20;99.90;;;;;;5054784;28;20043;-59
2022/05/20 02:08:57;;;;;;;18.58;14.18;;;12.30;99.90;;;;;;5054392;28;20469;-59
2022/05/20 02:11:45;;;;;;;24.83;16.00;;;11.20;99.90;;;;;;5052985;28;20102;-59
2022/05/20 02:14:40;;;;;;;17.17;14.80;;;12.00;99.90;;;;;;5052742;28;20043;-59
2022/05/20 02:17:19;;;;;;;21.50;15.32;;;11.20;99.90;;;;;;5052473;28;20207;-58
2022/05/20 02:20:05;;;;;;;20.63;14.93;;;12.50;99.90;;;;;;5053372;28;20044;-59
2022/05/20 02:22:37;;;;;;;20.88;15.50;;;11.50;99.90;;;;;;5054166;28;20043;-59
2022/05/20 02:25:06;;;;;;;25.88;17.38;;;11.00;99.90;;;;;;5053956;28;20048;-59
2022/05/20 02:27:39;;;;;;;19.08;14.52;;;10.90;99.90;;;;;;5054596;28;20678;-59
2022/05/20 02:30:09;;;;;;;18.52;15.35;;;10.80;99.90;;;;;;5051844;28;20055;-59
2022/05/20 02:32:46;;;;;;;20.30;14.48;;;10.80;99.90;;;;;;5054379;28;20056;-59
2022/05/20 02:35:11;;;;;;;15.70;13.98;;;10.70;99.90;;;;;;5052848;28;20533;-59
2022/05/20 02:37:38;;;;;;;18.02;15.05;;;12.60;99.90;;;;;;5054242;28;20102;-59
2022/05/20 02:40:06;;;;;;;18.83;14.95;;;10.70;99.90;;;;;;5049815;28;20053;-58
2022/05/20 02:42:32;;;;;;;18.00;14.02;;;10.50;99.90;;;;;;5052036;28;20040;-59
2022/05/20 02:44:59;;;;;;;22.65;16.70;;;11.90;99.90;;;;;;5052040;28;20102;-59
2022/05/20 02:47:31;;;;;;;150.20;17.13;;;10.80;99.90;;;;;;5085219;28;20056;-59
2022/05/20 02:50:10;;;;;;;18.40;13.27;;;10.50;99.90;;;;;;5051918;28;20040;-59
2022/05/20 02:52:36;;;;;;;20.30;13.98;;;10.70;99.90;;;;;;5052982;28;20681;-59
2022/05/20 02:55:03;;;;;;;23.17;16.00;;;10.30;99.90;;;;;;5051550;28;20121;-59
2022/05/20 02:57:28;;;;;;;20.83;14.68;;;10.60;99.90;;;;;;5052140;28;20094;-59
2022/05/20 03:05:25;;;;;;;14.82;11.90;;;10.50;99.90;;;;;;5052915;28;20524;-59
2022/05/20 03:07:51;;;;;;;19.48;13.45;;;10.40;99.90;;;;;;5052798;28;21917;-58
2022/05/20 03:10:17;;;;;;;10.63;8.98;;;10.20;99.90;;;;;;5053136;28;20041;-59
2022/05/20 03:12:43;;;;;;;14.85;11.13;;;10.40;99.90;;;;;;5053340;28;20040;-59
2022/05/20 03:15:11;;;;;;;17.02;12.43;;;10.30;99.90;;;;;;5052187;28;20040;-59
2022/05/20 03:17:38;;;;;;;18.55;14.68;;;10.30;99.90;;;;;;5051846;28;20552;-59
2022/05/20 03:20:08;;;;;;;22.92;14.55;;;10.20;99.90;;;;;;5052644;28;20127;-59
2022/05/20 03:22:35;;;;;;;24.88;14.23;;;10.10;99.90;;;;;;5052574;28;20033;-58
2022/05/20 03:25:01;;;;;;;17.20;12.85;;;12.40;99.90;;;;;;5052399;28;20055;-59
2022/05/20 03:27:30;;;;;;;16.45;13.48;;;11.00;99.90;;;;;;5053355;28;20053;-58
2022/05/20 03:29:55;;;;;;;18.50;13.75;;;10.10;99.90;;;;;;5052421;28;20148;-59
2022/05/20 03:32:21;;;;;;;37.13;15.85;;;11.10;99.90;;;;;;5052831;28;20052;-59
2022/05/20 03:34:47;;;;;;;19.90;13.18;;;10.20;99.90;;;;;;5053358;28;20517;-58
2022/05/20 03:37:12;;;;;;;12.98;11.30;;;10.10;99.90;;;;;;5052243;28;20033;-59
2022/05/20 03:39:38;;;;;;;16.63;10.75;;;10.20;99.90;;;;;;5053894;28;20076;-59
2022/05/20 03:42:06;;;;;;;20.00;11.82;;;10.00;99.90;;;;;;5052934;28;20119;-59
2022/05/20 03:44:32;;;;;;;25.92;11.52;;;9.80;99.90;;;;;;5052636;28;20155;-59
2022/05/20 03:46:58;;;;;;;11.55;8.57;;;11.00;99.90;;;;;;5051208;28;20501;-59
2022/05/20 03:49:26;;;;;;;12.18;7.60;;;9.90;99.90;;;;;;5052521;28;20040;-59
2022/05/20 03:51:53;;;;;;;10.50;7.45;;;10.80;99.90;;;;;;5050686;28;20189;-59
2022/05/20 03:54:21;;;;;;;14.23;7.95;;;9.60;99.90;;;;;;5050255;28;20493;-58
2022/05/20 03:56:50;;;;;;;13.27;9.85;;;9.70;99.90;;;;;;5053117;28;20082;-60
2022/05/20 03:59:16;;;;;;;11.80;9.32;;;9.70;99.90;;;;;;5052446;28;20048;-59
2022/05/20 04:01:58;;;;;;;14.40;10.88;;;9.70;99.90;;;;;;5051211;28;20075;-59
2022/05/20 04:04:31;;;;;;;15.48;11.40;;;9.90;99.90;;;;;;5052433;28;20097;-59
2022/05/20 04:07:02;;;;;;;16.65;14.07;;;9.90;99.90;;;;;;5053542;28;20131;-59
2022/05/20 04:09:29;;;;;;;12.75;10.68;;;10.00;99.90;;;;;;5055917;28;20052;-59
2022/05/20 04:11:57;;;;;;;12.30;8.85;;;9.90;99.90;;;;;;5055953;28;20150;-58
2022/05/20 04:14:28;;;;;;;12.07;9.90;;;10.00;99.90;;;;;;5056400;28;20047;-59
2022/05/20 04:16:57;;;;;;;12.98;9.35;;;11.30;99.90;;;;;;5055655;28;20044;-56
2022/05/20 04:19:29;;;;;;;13.35;10.60;;;10.30;99.90;;;;;;5054599;28;20113;-58
2022/05/20 04:21:58;;;;;;;14.48;12.20;;;10.40;99.90;;;;;;5055686;28;20444;-59
2022/05/20 04:24:25;;;;;;;16.33;13.98;;;10.20;99.90;;;;;;5055360;28;20134;-59
2022/05/20 04:26:51;;;;;;;15.35;12.55;;;11.40;99.90;;;;;;5054254;28;20736;-59
2022/05/20 04:29:18;;;;;;;15.52;13.45;;;10.40;99.90;;;;;;5054523;28;20197;-59
2022/05/20 04:31:47;;;;;;;15.10;12.40;;;10.20;99.90;;;;;;5055039;28;20528;-59
2022/05/20 04:34:13;;;;;;;16.75;12.95;;;11.60;99.90;;;;;;5054762;28;20033;-59
2022/05/20 04:36:40;;;;;;;17.15;13.90;;;10.40;99.90;;;;;;5055099;28;20408;-59
2022/05/20 04:39:07;;;;;;;17.80;14.77;;;10.40;99.90;;;;;;5054652;28;20749;-59
2022/05/20 04:47:11;;;;;;;27.25;16.92;;;11.20;99.90;;;;;;5055510;28;20084;-59
2022/05/20 04:49:40;;;;;;;21.90;17.73;;;10.60;99.90;;;;;;5053882;28;20874;-59
2022/05/20 04:52:06;;;;;;;21.60;16.60;;;10.80;99.90;;;;;;5055444;28;20119;-59
2022/05/20 04:54:50;;;;;;;24.38;17.83;;;11.00;99.90;;;;;;5054632;28;20055;-58
2022/05/20 04:57:27;;;;;;;21.63;16.48;;;11.20;99.90;;;;;;5054909;28;20188;-59
2022/05/20 04:59:57;;;;;;;15.77;14.18;;;11.10;99.90;;;;;;5054993;28;20531;-59
2022/05/20 05:02:23;;;;;;;20.38;17.08;;;11.10;99.90;;;;;;5054344;28;20102;-58
2022/05/20 05:04:49;;;;;;;21.25;15.98;;;11.10;99.90;;;;;;5054421;28;20040;-59
2022/05/20 05:07:16;;;;;;;20.77;18.50;;;11.40;99.90;;;;;;5053913;28;20036;-59
2022/05/20 05:09:43;;;;;;;25.25;18.08;;;11.50;99.90;;;;;;5053225;28;20512;-57
2022/05/20 05:12:09;;;;;;;21.30;18.27;;;11.60;99.90;;;;;;5051165;28;20098;-60
2022/05/20 05:14:48;;;;;;;21.98;18.23;;;11.70;99.90;;;;;;5053790;28;20509;-59
2022/05/20 05:17:16;;;;;;;24.45;19.35;;;11.90;99.90;;;;;;5052661;28;20517;-56
2022/05/20 05:19:46;;;;;;;23.25;18.58;;;11.80;99.90;;;;;;5051518;28;20131;-59
2022/05/20 05:22:14;;;;;;;22.98;19.15;;;14.10;99.90;;;;;;5052723;28;20123;-59
2022/05/20 05:24:40;;;;;;;23.67;19.70;;;12.20;99.90;;;;;;5053458;28;20059;-58
2022/05/20 05:27:06;;;;;;;22.67;18.52;;;12.20;99.90;;;;;;5052961;28;20048;-58
2022/05/20 05:29:35;;;;;;;23.17;17.35;;;12.30;99.90;;;;;;5053061;28;20040;-58
2022/05/20 05:32:01;;;;;;;22.67;17.67;;;12.50;99.90;;;;;;5053166;28;20048;-59
2022/05/20 05:34:27;;;;;;;21.25;16.85;;;12.70;99.90;;;;;;5052953;28;20067;-58
2022/05/20 05:36:54;;;;;;;21.35;16.65;;;12.80;99.90;;;;;;5085376;28;21062;-58
2022/05/20 05:39:20;;;;;;;27.23;17.58;;;12.80;99.90;;;;;;5053917;28;20114;-58
2022/05/20 05:41:46;;;;;;;21.85;17.83;;;13.00;99.90;;;;;;5085965;28;20065;-58
2022/05/20 05:44:14;;;;;;;20.92;18.65;;;13.20;99.90;;;;;;5048304;28;20118;-59
2022/05/20 05:46:40;;;;;;;20.17;18.05;;;13.30;99.90;;;;;;5053429;28;20045;-58
2022/05/20 05:49:07;;;;;;;22.75;18.63;;;13.40;99.90;;;;;;5051891;28;20051;-58
2022/05/20 05:51:33;;;;;;;19.80;17.80;;;13.80;99.90;;;;;;5049735;28;20144;-59
2022/05/20 05:53:59;;;;;;;26.05;18.42;;;13.70;99.90;;;;;;5052113;28;20131;-59
2022/05/20 05:56:25;;;;;;;20.60;15.90;;;13.70;99.90;;;;;;5051456;28;20595;-59
2022/05/20 05:58:52;;;;;;;17.02;15.02;;;13.90;99.90;;;;;;5054114;28;20044;-55
2022/05/20 06:01:18;;;;;;;25.38;16.67;;;14.00;99.90;;;;;;5051658;28;20094;-58
2022/05/20 06:03:44;;;;;;;19.95;15.38;;;14.20;99.90;;;;;;5053840;28;20041;-59
2022/05/20 06:06:10;;;;;;;18.15;13.95;;;14.30;99.90;;;;;;5053664;28;20316;-59
2022/05/20 06:08:35;;;;;;;18.27;14.05;;;14.20;99.90;;;;;;5053368;28;20492;-58
2022/05/20 06:11:01;;;;;;;15.80;13.48;;;14.40;99.90;;;;;;5055026;28;20086;-58
2022/05/20 06:13:30;;;;;;;16.77;12.68;;;16.50;99.90;;;;;;5052664;28;20044;-58
2022/05/20 06:15:58;;;;;;;15.07;10.85;;;14.30;99.90;;;;;;5052239;28;20044;-59
2022/05/20 06:18:25;;;;;;;21.88;12.68;;;14.60;99.90;;;;;;5053041;28;20131;-58
2022/05/20 06:20:51;;;;;;;18.75;12.05;;;16.70;99.90;;;;;;5052928;28;20060;-58
2022/05/20 06:23:18;;;;;;;15.20;11.30;;;15.70;99.90;;;;;;5052880;28;20632;-58
2022/05/20 06:25:44;;;;;;;14.90;11.52;;;17.40;99.90;;;;;;5051774;28;20045;-58
2022/05/20 06:28:12;;;;;;;13.30;10.48;;;15.50;99.90;;;;;;5049706;28;20096;-58
2022/05/20 06:30:39;;;;;;;14.02;8.80;;;15.50;99.90;;;;;;5049958;28;20120;-58
2022/05/20 06:33:06;;;;;;;9.98;4.72;;;15.80;99.90;;;;;;5053409;28;20052;-58
2022/05/20 06:41:03;;;;;;;14.00;8.95;;;17.90;99.90;;;;;;5053274;28;20081;-58
2022/05/20 06:43:31;;;;;;;15.05;7.80;;;15.50;99.90;;;;;;5053768;28;20358;-59
2022/05/20 06:46:01;;;;;;;13.80;8.77;;;17.70;99.90;;;;;;5052900;28;20889;-59
2022/05/20 06:48:48;;;;;;;15.40;7.93;;;16.00;99.90;;;;;;5052909;28;20033;-59
2022/05/20 06:51:18;;;;;;;12.63;7.15;;;15.60;99.90;;;;;;5052518;28;20032;-59
2022/05/20 06:53:44;;;;;;;10.40;7.20;;;15.90;99.90;;;;;;5052517;28;20037;-59
2022/05/20 06:56:11;;;;;;;9.48;6.60;;;18.10;99.90;;;;;;5052205;28;21369;-60
2022/05/20 06:58:37;;;;;;;12.40;6.38;;;18.70;99.90;;;;;;5052179;28;20047;-59
2022/05/20 07:01:03;;;;;;;12.43;6.50;;;17.70;99.90;;;;;;5054055;28;20501;-59
2022/05/20 07:03:29;;;;;;;11.25;5.95;;;17.40;99.90;;;;;;5052031;28;20429;-59
2022/05/20 07:05:55;;;;;;;14.20;6.25;;;18.10;99.90;;;;;;5052030;28;20051;-59
2022/05/20 07:08:24;;;;;;;11.38;5.13;;;19.30;99.90;;;;;;5051381;28;21636;-59
2022/05/20 07:10:50;;;;;;;11.15;6.07;;;18.10;99.90;;;;;;5052864;28;20370;-60
2022/05/20 07:13:15;;;;;;;13.80;6.55;;;18.20;99.90;;;;;;5054014;28;20143;-59
2022/05/20 07:15:41;;;;;;;10.07;5.22;;;21.20;99.90;;;;;;5051896;28;20556;-59
2022/05/20 07:18:07;;;;;;;10.45;5.55;;;19.60;99.90;;;;;;5054146;28;20045;-60
2022/05/20 07:20:33;;;;;;;10.73;4.70;;;19.80;99.90;;;;;;5053037;28;20504;-59
2022/05/20 07:23:01;;;;;;;8.77;4.78;;;20.30;99.90;;;;;;5053698;28;20135;-59
2022/05/20 07:25:26;;;;;;;11.90;5.60;;;18.40;99.90;;;;;;5053190;28;20040;-60
2022/05/20 07:27:56;;;;;;;10.95;5.45;;;20.10;99.90;;;;;;5051955;28;20044;-59
2022/05/20 07:30:22;;;;;;;13.95;6.10;;;20.30;99.90;;;;;;5050696;28;20741;-59
2022/05/20 07:32:47;;;;;;;9.32;6.43;;;19.20;99.90;;;;;;5053686;28;20051;-60
2022/05/20 07:35:16;;;;;;;11.50;6.20;;;19.00;99.90;;;;;;5052257;28;20489;-60
2022/05/20 07:37:42;;;;;;;10.00;5.60;;;19.30;99.90;;;;;;5053472;28;20033;-59
2022/05/20 07:40:09;;;;;;;9.57;5.70;;;19.90;99.90;;;;;;5054068;28;20036;-60
2022/05/20 07:42:34;;;;;;;9.20;5.50;;;20.40;99.90;;;;;;5056525;28;20043;-59
2022/05/20 07:45:01;;;;;;;9.93;5.30;;;20.50;99.90;;;;;;5055991;28;20044;-59
2022/05/20 07:47:28;;;;;;;11.48;5.68;;;22.20;99.90;;;;;;5056050;28;20055;-60
2022/05/20 07:49:54;;;;;;;11.15;5.80;;;20.70;99.90;;;;;;5055151;28;20071;-60
2022/05/20 07:55:07;;;;;;;9.65;4.35;;;21.60;99.90;;;;;;5056198;28;20052;-59
2022/05/20 07:57:33;;;;;;;9.90;3.65;;;21.10;99.90;;;;;;5054463;28;20071;-60
2022/05/20 08:00:00;;;;;;;9.35;3.78;;;21.30;99.90;;;;;;5055619;28;20072;-59
2022/05/20 08:02:29;;;;;;;5.93;2.83;;;21.40;99.90;;;;;;5054703;28;20131;-59
2022/05/20 08:04:57;;;;;;;10.00;3.65;;;23.70;99.90;;;;;;5055830;28;20047;-60
2022/05/20 08:07:26;;;;;;;8.82;3.42;;;21.70;99.90;;;;;;5053910;28;20417;-59
2022/05/20 08:09:54;;;;;;;11.60;3.95;;;21.40;99.90;;;;;;5056911;28;20513;-59
2022/05/20 08:12:20;;;;;;;9.18;3.78;;;20.60;99.90;;;;;;5055892;28;20059;-60
2022/05/20 08:14:47;;;;;;;7.55;3.15;;;20.30;99.90;;;;;;5054713;28;20068;-59
2022/05/20 08:17:13;;;;;;;6.90;2.90;;;19.80;99.90;;;;;;5054841;28;20036;-59
2022/05/20 08:19:39;;;;;;;10.30;3.55;;;19.60;99.90;;;;;;5055500;28;20040;-60
2022/05/20 08:22:05;;;;;;;9.32;3.40;;;20.70;99.90;;;;;;5055017;28;20488;-60
2022/05/20 08:24:34;;;;;;;8.38;3.67;;;19.20;99.90;;;;;;5054929;28;20131;-59
2022/05/20 08:27:00;;;;;;;7.05;3.28;;;19.40;99.90;;;;;;5054928;28;20048;-59
2022/05/20 08:29:26;;;;;;;7.63;3.17;;;19.00;99.90;;;;;;5055242;28;20039;-60
2022/05/20 08:31:53;;;;;;;9.95;3.53;;;19.80;99.90;;;;;;5055021;28;20056;-60
2022/05/20 08:34:19;;;;;;;8.73;2.63;;;18.80;99.90;;;;;;5056112;28;20044;-59
2022/05/20 08:36:45;;;;;;;5.82;2.78;;;18.90;99.90;;;;;;5056052;28;20040;-60
2022/05/20 08:39:12;;;;;;;9.23;2.90;;;18.80;99.90;;;;;;5054186;28;20086;-61
2022/05/20 08:41:46;;;;;;;7.15;3.42;;;18.50;99.90;;;;;;5055660;28;20031;-60
2022/05/20 08:44:16;;;;;;;6.90;3.30;;;18.50;99.90;;;;;;5055829;28;20463;-59
2022/05/20 08:46:42;;;;;;;6.53;3.15;;;20.60;99.90;;;;;;5054106;28;20055;-60
2022/05/20 08:49:13;;;;;;;8.25;2.95;;;18.60;99.90;;;;;;5055822;28;20260;-60
2022/05/20 08:51:41;;;;;;;8.07;4.18;;;18.80;99.90;;;;;;5054881;28;20043;-60
2022/05/20 08:54:09;;;;;;;9.65;4.63;;;18.80;99.90;;;;;;5055129;28;20043;-60
2022/05/20 08:56:37;;;;;;;6.75;2.95;;;18.80;99.90;;;;;;5054290;28;20097;-60
2022/05/20 08:59:07;;;;;;;11.65;3.40;;;16.70;99.90;;;;;;5054890;28;20044;-60
2022/05/20 09:01:43;;;;;;;7.72;3.38;;;18.70;99.90;;;;;;5053736;28;20562;-60
2022/05/20 09:04:13;;;;;;;7.40;3.05;;;19.00;99.90;;;;;;5052956;28;20064;-60
2022/05/20 09:06:58;;;;;;;6.55;3.30;;;19.20;99.90;;;;;;5053533;28;20040;-60
2022/05/20 09:09:28;;;;;;;9.95;4.43;;;19.70;99.90;;;;;;5053779;28;20183;-60
2022/05/20 09:11:56;;;;;;;8.43;3.83;;;19.60;99.90;;;;;;5054608;28;20048;-60
2022/05/20 09:17:12;;;;;;;6.38;2.88;;;19.70;99.90;;;;;;5054346;28;20091;-61
2022/05/20 09:20:04;;;;;;;8.95;3.20;;;19.90;99.90;;;;;;5054657;28;20040;-60
2022/05/20 09:22:37;;;;;;;9.20;3.42;;;19.30;99.90;;;;;;5054647;28;20136;-60
2022/05/20 09:25:33;;;;;;;7.03;2.53;;;19.30;99.90;;;;;;5054056;28;20094;-60
2022/05/20 09:28:38;;;;;;;6.30;3.20;;;19.20;99.90;;;;;;5050850;28;20048;-60
2022/05/20 09:31:30;;;;;;;8.02;3.28;;;19.20;99.90;;;;;;5050742;28;20139;-61
2022/05/20 09:34:12;;;;;;;7.80;2.75;;;19.10;99.90;;;;;;4991668;28;20080;-59
2022/05/20 09:36:51;;;;;;;7.93;3.08;;;19.20;99.90;;;;;;4990762;28;20380;-60
2022/05/20 09:39:21;;;;;;;8.60;3.00;;;19.10;99.90;;;;;;4990566;28;20364;-60
2022/05/20 09:41:53;;;;;;;8.05;2.78;;;19.10;99.90;;;;;;4992399;28;20248;-60
2022/05/20 09:44:23;;;;;;;7.55;3.92;;;19.10;99.90;;;;;;4992288;28;20050;-60
2022/05/20 09:46:54;;;;;;;12.50;3.85;;;19.00;99.90;;;;;;4991572;28;20049;-60
2022/05/20 09:49:31;;;;;;;;;;;19.20;99.90;;;;;;4991617;28;20108;-59
2022/05/20 09:52:00;;;;;;;6.78;3.45;;;19.10;99.90;;;;;;4990676;28;19930;-60
2022/05/20 09:54:39;;;;;;;7.15;3.78;;;19.00;99.90;;;;;;4988859;28;20495;-59
2022/05/20 09:57:15;;;;;;;9.77;3.67;;;20.80;99.90;;;;;;4988103;28;20062;-59
2022/05/20 10:00:04;;;;;;;6.45;3.40;;;16.80;99.90;;;;;;4989459;28;20049;-60
2022/05/20 10:02:35;;;;;;;7.57;4.00;;;18.70;99.90;;;;;;4987184;28;20037;-59
2022/05/20 10:05:21;;;;;;;7.40;4.05;;;18.40;99.90;;;;;;4977950;28;20120;-60
2022/05/20 10:08:13;;;;;;;11.45;3.97;;;18.40;99.90;;;;;;4988531;28;20050;-59
2022/05/20 10:10:42;;;;;;;;;;;18.20;99.90;;;;;;5012100;28;20528;-59
2022/05/20 10:13:22;;;;;;;8.10;3.90;;;18.10;99.90;;;;;;5049604;28;19981;-59
2022/05/20 10:15:51;;;;;;;9.05;4.50;;;17.90;99.90;;;;;;5052749;28;20036;-59
2022/05/20 10:18:44;;;;;;;7.55;3.97;;;18.10;99.90;;;;;;5050392;28;20040;-59
2022/05/20 10:21:15;;;;;;;6.15;3.40;;;18.00;99.90;;;;;;5052434;28;20075;-60
2022/05/20 10:24:20;;;;;;;7.88;3.28;;;18.90;99.90;;;;;;5052888;28;20044;-60
2022/05/20 10:27:10;;;;;;;7.30;3.92;;;18.20;99.90;;;;;;5009542;28;20059;-59
2022/05/20 10:32:39;;;;;;;8.20;3.03;;;18.00;99.90;;;;;;5008180;28;20085;-60
2022/05/20 10:35:11;;;;;;;5.13;3.22;;;17.90;99.90;;;;;;5008394;28;20148;-59
2022/05/20 10:37:59;;;;;;;7.88;3.67;;;19.50;99.90;;;;;;5009354;28;20451;-60
2022/05/20 10:41:01;;;;;;;8.00;3.70;;;18.20;99.90;;;;;;5009792;28;20055;-59
2022/05/20 10:48:34;;;;;;;;;;;18.20;99.90;;;;;;5011294;28;20049;-60
2022/05/20 10:49:18;;;;;;;9.32;3.92;;;18.30;99.90;;;;;;5009007;28;19948;-60
2022/05/20 10:52:02;;;;;;;8.82;4.15;;;18.50;99.90;;;;;;5010295;28;20056;-59
2022/05/20 10:55:01;;;;;;;8.23;4.18;;;19.60;99.90;;;;;;5008898;28;20232;-60
2022/05/20 10:57:46;;;;;;;8.75;4.78;;;18.40;99.90;;;;;;5009393;28;20049;-59
2022/05/20 11:00:22;;;;;;;9.10;4.93;;;18.30;99.90;;;;;;5009982;28;20073;-60
2022/05/20 11:03:17;;;;;;;9.57;4.72;;;18.30;99.90;;;;;;5019787;28;20049;-60
2022/05/20 11:05:54;;;;;;;9.75;4.70;;;18.50;99.90;;;;;;5026742;28;20090;-60
2022/05/20 11:08:36;;;;;;;8.70;4.75;;;20.10;99.90;;;;;;5028938;28;20044;-60
2022/05/20 11:11:04;;;;;;;7.72;3.85;;;18.50;99.90;;;;;;5027010;28;20053;-60
2022/05/20 11:14:00;;;;;;;8.55;4.13;;;18.20;99.90;;;;;;5028457;28;20037;-60
2022/05/20 11:16:55;;;;;;;7.55;4.60;;;18.50;99.90;;;;;;5028700;28;20044;-59
2022/05/20 11:19:49;;;;;;;9.68;4.63;;;18.50;99.90;;;;;;5031002;28;20072;-59
2022/05/20 11:22:21;;;;;;;9.32;3.90;;;18.50;99.90;;;;;;4954235;28;20049;-60
2022/05/20 11:24:59;;;;;;;10.25;3.80;;;18.70;99.90;;;;;;4954520;28;20039;-60
2022/05/20 11:28:06;;;;;;;8.18;3.20;;;18.70;99.90;;;;;;4954435;28;20058;-60
2022/05/20 11:30:37;;;;;;;7.20;3.53;;;18.90;99.90;;;;;;4954788;28;20050;-59
2022/05/20 11:33:08;;;;;;;6.07;3.40;;;18.80;99.90;;;;;;4954207;28;20062;-60
2022/05/20 11:36:04;;;;;;;6.47;3.08;;;18.60;99.90;;;;;;4954026;28;20437;-60
2022/05/20 11:38:40;;;;;;;9.00;3.38;;;18.80;99.90;;;;;;4954906;28;20047;-60
2022/05/20 11:41:23;;;;;;;7.85;3.15;;;18.90;99.90;;;;;;4955413;28;20195;-60
2022/05/20 11:44:01;;;;;;;5.85;3.28;;;18.60;99.90;;;;;;4975801;28;20058;-60
2022/05/20 11:46:29;;;;;;;8.27;3.38;;;21.00;99.90;;;;;;4974109;28;20050;-60
2022/05/20 11:49:06;;;;;;;6.05;2.47;;;18.60;99.90;;;;;;4974169;28;20053;-60
2022/05/20 11:51:51;;;;;;;4.80;2.40;;;18.70;99.90;;;;;;4973022;28;20077;-59
2022/05/20 11:54:36;;;;;;;4.85;2.35;;;18.70;99.90;;;;;;4974051;28;20047;-60
2022/05/20 11:57:07;;;;;;;6.75;2.65;;;20.80;99.90;;;;;;4974612;28;20092;-60
2022/05/20 12:00:04;;;;;;;6.15;2.42;;;18.60;99.90;;;;;;5031730;28;20052;-61
2022/05/20 12:02:56;;;;;;;6.68;2.10;;;18.80;99.90;;;;;;5052574;28;20062;-60
2022/05/20 12:05:26;;;;;;;3.50;1.75;;;18.70;99.90;;;;;;5052602;28;20759;-59
2022/05/20 12:07:52;;;;;;;5.75;2.60;;;18.70;99.90;;;;;;5052001;28;20091;-61
2022/05/20 12:10:30;;;;;;;4.97;2.10;;;18.80;99.90;;;;;;5051209;28;20041;-61
2022/05/20 12:13:26;;;;;;;8.18;2.50;;;18.60;99.90;;;;;;5052044;28;21033;-61
2022/05/20 12:16:07;;;;;;;5.65;2.28;;;18.70;99.90;;;;;;5050948;28;20042;-59
2022/05/20 12:24:53;;;;;;;4.03;1.80;;;18.90;99.90;;;;;;4991654;28;20574;-61
2022/05/20 12:27:24;;;;;;;5.63;2.58;;;18.90;99.90;;;;;;4991178;28;20048;-60
2022/05/20 12:29:59;;;;;;;3.65;1.73;;;18.90;99.90;;;;;;4991509;28;20085;-60
2022/05/20 12:32:27;;;;;;;5.03;2.13;;;19.30;99.90;;;;;;4992323;28;20057;-61
2022/05/20 12:35:03;;;;;;;4.07;1.45;;;19.50;99.90;;;;;;4991248;28;20128;-62
2022/05/20 12:37:56;;;;;;;5.47;2.00;;;19.60;99.90;;;;;;4992043;28;20119;-60
2022/05/20 12:40:28;;;;;;;6.60;2.15;;;19.80;99.90;;;;;;5012025;28;20060;-61
2022/05/20 12:43:06;;;;;;;;;;;19.90;99.90;;;;;;5012244;28;20729;-61
2022/05/20 12:45:53;;;;;;;5.55;2.88;;;19.60;99.90;;;;;;5009875;28;19921;-61
2022/05/20 12:48:24;;;;;;;7.13;2.67;;;19.40;99.90;;;;;;5010595;28;20127;-61
2022/05/20 12:51:05;;;;;;;5.70;1.87;;;19.40;99.90;;;;;;5010498;28;20049;-61
2022/05/20 12:53:33;;;;;;;3.40;2.00;;;19.40;99.90;;;;;;5010543;28;20060;-61
2022/05/20 12:56:00;;;;;;;10.10;3.13;;;19.70;99.90;;;;;;5038210;28;20052;-61
2022/05/20 12:58:33;;;;;;;6.30;2.40;;;19.40;99.90;;;;;;5053578;28;20590;-61
2022/05/20 13:01:02;;;;;;;12.55;3.45;;;19.70;99.90;;;;;;5052687;28;20075;-50
2022/05/20 13:03:28;;;;;;;7.40;2.80;;;19.50;99.90;;;;;;5054416;28;20041;-49
2022/05/20 13:05:58;;;;;;;5.88;2.80;;;19.50;99.90;;;;;;5055216;28;20041;-51
2022/05/20 13:09:04;;;;;;;9.75;3.30;;;19.50;99.90;;;;;;5054913;28;20045;-48
2022/05/20 13:11:47;;;;;;;10.75;3.40;;;19.20;99.90;;;;;;5053640;28;20037;-52
2022/05/20 13:14:16;;;;;;;6.03;2.80;;;19.10;99.90;;;;;;5053961;28;20692;-50
2022/05/20 13:16:47;;;;;;;6.15;3.10;;;18.90;99.90;;;;;;5055559;28;20041;-50
2022/05/20 13:19:15;;;;;;;5.53;2.97;;;18.80;99.90;;;;;;5053109;28;20039;-51
2022/05/20 13:21:57;;;;;;;9.35;2.80;;;18.50;99.90;;;;;;5050653;28;20053;-53
2022/05/20 13:24:28;;;;;;;6.32;2.90;;;18.60;99.90;;;;;;5052680;28;20040;-50
2022/05/20 13:27:20;;;;;;;8.43;2.83;;;18.50;99.90;;;;;;5053838;28;20036;-49
2022/05/20 13:29:49;;;;;;;5.82;2.92;;;19.80;99.90;;;;;;5054252;28;20079;-50
2022/05/20 13:32:17;;;;;;;6.65;2.70;;;17.90;99.90;;;;;;5053329;28;20081;-49
2022/05/20 13:34:44;;;;;;;5.45;3.00;;;18.10;99.90;;;;;;5053869;28;20524;-48
2022/05/20 13:37:14;;;;;;;5.65;2.40;;;20.40;99.90;;;;;;5053155;28;20041;-50
2022/05/20 13:39:43;;;;;;;4.43;2.35;;;18.10;99.90;;;;;;5053037;28;20041;-48